sensor_id;sensor_type;location;lat;lon;timestamp;temperature;humidity
18388;DHT22;9320;50.256;19.026;2023-03-20T00:02:01;10.60;65.60
18388;DHT22;9320;50.256;19.026;2023-03-20T00:04:29;10.60;65.70
18388;DHT22;9320;50.256;19.026;2023-03-20T00:06:57;10.60;65.60
18388;DHT22;9320;50.256;19.026;2023-03-20T00:09:25;10.60;65.70
18388;DHT22;9320;50.256;19.026;2023-03-20T00:11:54;10.70;65.60
18388;DHT22;9320;50.256;19.026;2023-03-20T00:14:24;10.60;65.50
18388;DHT22;9320;50.256;19.026;2023-03-20T00:16:52;10.70;65.60
18388;DHT22;9320;50.256;19.026;2023-03-20T00:19:22;10.70;65.50
18388;DHT22;9320;50.256;19.026;2023-03-20T00:21:52;10.70;65.40
18388;DHT22;9320;50.256;19.026;2023-03-20T00:24:21;10.70;65.40
18388;DHT22;9320;50.256;19.026;2023-03-20T00:26:51;10.70;65.30
18388;DHT22;9320;50.256;19.026;2023-03-20T00:29:21;10.70;65.30
18388;DHT22;9320;50.256;19.026;2023-03-20T00:31:52;10.80;65.30
18388;DHT22;9320;50.256;19.026;2023-03-20T00:34:22;10.70;65.20
18388;DHT22;9320;50.256;19.026;2023-03-20T00:36:52;10.70;65.10
18388;DHT22;9320;50.256;19.026;2023-03-20T00:39:20;10.70;65.20
18388;DHT22;9320;50.256;19.026;2023-03-20T00:41:50;10.70;65.40
18388;DHT22;9320;50.256;19.026;2023-03-20T00:44:22;10.70;65.40
18388;DHT22;9320;50.256;19.026;2023-03-20T00:46:53;10.70;65.40
18388;DHT22;9320;50.256;19.026;2023-03-20T00:49:25;10.70;65.00
18388;DHT22;9320;50.256;19.026;2023-03-20T00:51:55;10.70;65.50
18388;DHT22;9320;50.256;19.026;2023-03-20T00:54:24;10.70;65.50
18388;DHT22;9320;50.256;19.026;2023-03-20T00:56:56;10.70;65.50
18388;DHT22;9320;50.256;19.026;2023-03-20T00:59:29;10.70;66.10
18388;DHT22;9320;50.256;19.026;2023-03-20T01:02:00;10.70;65.50
18388;DHT22;9320;50.256;19.026;2023-03-20T01:04:34;10.70;65.50
18388;DHT22;9320;50.256;19.026;2023-03-20T01:07:04;10.70;65.50
18388;DHT22;9320;50.256;19.026;2023-03-20T01:09:33;10.80;65.50
18388;DHT22;9320;50.256;19.026;2023-03-20T01:12:01;10.80;65.40
18388;DHT22;9320;50.256;19.026;2023-03-20T01:14:29;10.80;65.30
18388;DHT22;9320;50.256;19.026;2023-03-20T01:16:59;10.80;65.20
18388;DHT22;9320;50.256;19.026;2023-03-20T01:19:27;10.80;65.30
18388;DHT22;9320;50.256;19.026;2023-03-20T01:21:55;10.80;65.30
18388;DHT22;9320;50.256;19.026;2023-03-20T01:24:23;10.90;65.50
18388;DHT22;9320;50.256;19.026;2023-03-20T01:26:51;10.90;65.10
18388;DHT22;9320;50.256;19.026;2023-03-20T01:29:23;11.00;65.00
18388;DHT22;9320;50.256;19.026;2023-03-20T01:31:52;10.90;65.10
18388;DHT22;9320;50.256;19.026;2023-03-20T01:34:21;10.90;65.30
18388;DHT22;9320;50.256;19.026;2023-03-20T01:36:51;10.90;65.20
18388;DHT22;9320;50.256;19.026;2023-03-20T01:39:20;10.90;65.20
18388;DHT22;9320;50.256;19.026;2023-03-20T01:41:51;11.00;65.10
18388;DHT22;9320;50.256;19.026;2023-03-20T01:44:22;11.00;65.10
18388;DHT22;9320;50.256;19.026;2023-03-20T01:46:51;11.00;65.00
18388;DHT22;9320;50.256;19.026;2023-03-20T01:52:26;11.10;64.80
18388;DHT22;9320;50.256;19.026;2023-03-20T01:54:54;11.10;64.70
18388;DHT22;9320;50.256;19.026;2023-03-20T01:57:24;11.10;64.70
18388;DHT22;9320;50.256;19.026;2023-03-20T01:59:56;11.10;64.70
18388;DHT22;9320;50.256;19.026;2023-03-20T02:02:29;11.00;64.90
18388;DHT22;9320;50.256;19.026;2023-03-20T02:05:00;11.10;64.70
18388;DHT22;9320;50.256;19.026;2023-03-20T02:07:32;11.10;65.40
18388;DHT22;9320;50.256;19.026;2023-03-20T02:10:02;11.10;64.60
18388;DHT22;9320;50.256;19.026;2023-03-20T02:12:31;11.10;64.70
18388;DHT22;9320;50.256;19.026;2023-03-20T02:15:00;11.10;64.60
18388;DHT22;9320;50.256;19.026;2023-03-20T02:17:28;11.10;64.60
18388;DHT22;9320;50.256;19.026;2023-03-20T02:20:03;11.00;64.80
18388;DHT22;9320;50.256;19.026;2023-03-20T02:23:05;11.00;64.80
18388;DHT22;9320;50.256;19.026;2023-03-20T02:26:06;11.10;64.90
18388;DHT22;9320;50.256;19.026;2023-03-20T02:32:06;11.10;64.70
18388;DHT22;9320;50.256;19.026;2023-03-20T02:34:54;11.10;64.70
18388;DHT22;9320;50.256;19.026;2023-03-20T02:37:46;11.10;65.50
18388;DHT22;9320;50.256;19.026;2023-03-20T02:40:23;11.10;64.70
18388;DHT22;9320;50.256;19.026;2023-03-20T02:42:59;11.30;64.90
18388;DHT22;9320;50.256;19.026;2023-03-20T02:45:34;11.10;64.70
18388;DHT22;9320;50.256;19.026;2023-03-20T02:48:11;11.00;65.00
18388;DHT22;9320;50.256;19.026;2023-03-20T02:50:46;11.00;65.10
18388;DHT22;9320;50.256;19.026;2023-03-20T02:53:30;11.00;65.30
18388;DHT22;9320;50.256;19.026;2023-03-20T02:56:04;11.00;65.20
18388;DHT22;9320;50.256;19.026;2023-03-20T02:58:38;11.00;65.30
18388;DHT22;9320;50.256;19.026;2023-03-20T03:01:10;11.00;65.50
18388;DHT22;9320;50.256;19.026;2023-03-20T03:03:45;10.90;65.70
18388;DHT22;9320;50.256;19.026;2023-03-20T03:06:17;10.90;65.90
18388;DHT22;9320;50.256;19.026;2023-03-20T03:08:50;10.90;66.00
18388;DHT22;9320;50.256;19.026;2023-03-20T03:11:19;10.90;65.80
18388;DHT22;9320;50.256;19.026;2023-03-20T03:13:50;10.90;65.80
18388;DHT22;9320;50.256;19.026;2023-03-20T03:16:23;10.90;65.80
18388;DHT22;9320;50.256;19.026;2023-03-20T03:19:00;10.90;65.80
18388;DHT22;9320;50.256;19.026;2023-03-20T03:21:29;10.90;65.90
18388;DHT22;9320;50.256;19.026;2023-03-20T03:24:00;10.90;65.80
18388;DHT22;9320;50.256;19.026;2023-03-20T03:26:33;10.90;65.70
18388;DHT22;9320;50.256;19.026;2023-03-20T03:29:05;10.90;65.80
18388;DHT22;9320;50.256;19.026;2023-03-20T03:31:37;11.00;65.80
18388;DHT22;9320;50.256;19.026;2023-03-20T03:34:11;10.90;65.70
18388;DHT22;9320;50.256;19.026;2023-03-20T03:36:47;10.90;65.80
18388;DHT22;9320;50.256;19.026;2023-03-20T03:39:23;10.90;65.70
18388;DHT22;9320;50.256;19.026;2023-03-20T03:42:02;10.90;65.90
18388;DHT22;9320;50.256;19.026;2023-03-20T03:44:36;10.90;65.80
18388;DHT22;9320;50.256;19.026;2023-03-20T03:47:11;10.80;66.10
18388;DHT22;9320;50.256;19.026;2023-03-20T03:49:42;10.80;66.10
18388;DHT22;9320;50.256;19.026;2023-03-20T03:52:16;10.90;66.10
18388;DHT22;9320;50.256;19.026;2023-03-20T03:54:50;10.80;66.00
18388;DHT22;9320;50.256;19.026;2023-03-20T03:57:23;10.80;66.20
18388;DHT22;9320;50.256;19.026;2023-03-20T03:59:54;10.80;66.20
18388;DHT22;9320;50.256;19.026;2023-03-20T04:02:24;10.80;66.20
18388;DHT22;9320;50.256;19.026;2023-03-20T04:04:53;10.70;66.30
18388;DHT22;9320;50.256;19.026;2023-03-20T04:07:25;10.70;66.40
18388;DHT22;9320;50.256;19.026;2023-03-20T04:09:55;10.70;66.60
18388;DHT22;9320;50.256;19.026;2023-03-20T04:12:33;10.70;66.80
18388;DHT22;9320;50.256;19.026;2023-03-20T04:15:02;10.70;66.90
18388;DHT22;9320;50.256;19.026;2023-03-20T04:17:30;10.70;66.90
18388;DHT22;9320;50.256;19.026;2023-03-20T04:19:58;10.70;67.00
18388;DHT22;9320;50.256;19.026;2023-03-20T04:22:27;10.70;67.00
18388;DHT22;9320;50.256;19.026;2023-03-20T04:24:56;10.70;67.90
18388;DHT22;9320;50.256;19.026;2023-03-20T04:27:24;10.70;67.20
18388;DHT22;9320;50.256;19.026;2023-03-20T04:29:52;10.70;67.30
18388;DHT22;9320;50.256;19.026;2023-03-20T04:32:20;10.60;67.30
18388;DHT22;9320;50.256;19.026;2023-03-20T04:34:48;10.60;67.60
18388;DHT22;9320;50.256;19.026;2023-03-20T04:37:18;10.60;67.80
18388;DHT22;9320;50.256;19.026;2023-03-20T04:39:46;10.60;67.90
18388;DHT22;9320;50.256;19.026;2023-03-20T04:42:15;10.60;67.80
18388;DHT22;9320;50.256;19.026;2023-03-20T04:44:43;10.60;67.70
18388;DHT22;9320;50.256;19.026;2023-03-20T04:47:11;10.60;67.80
18388;DHT22;9320;50.256;19.026;2023-03-20T04:49:39;10.60;67.80
18388;DHT22;9320;50.256;19.026;2023-03-20T04:52:07;10.60;67.50
18388;DHT22;9320;50.256;19.026;2023-03-20T04:54:35;10.60;68.10
18388;DHT22;9320;50.256;19.026;2023-03-20T04:57:03;10.60;68.30
18388;DHT22;9320;50.256;19.026;2023-03-20T04:59:33;10.50;68.30
18388;DHT22;9320;50.256;19.026;2023-03-20T05:02:01;10.50;68.70
18388;DHT22;9320;50.256;19.026;2023-03-20T05:04:29;10.40;69.50
18388;DHT22;9320;50.256;19.026;2023-03-20T05:06:57;10.30;69.10
18388;DHT22;9320;50.256;19.026;2023-03-20T05:09:25;10.30;69.40
18388;DHT22;9320;50.256;19.026;2023-03-20T05:11:53;10.30;69.60
18388;DHT22;9320;50.256;19.026;2023-03-20T05:14:21;10.20;69.70
18388;DHT22;9320;50.256;19.026;2023-03-20T05:16:50;10.30;70.00
18388;DHT22;9320;50.256;19.026;2023-03-20T05:19:19;10.20;70.10
18388;DHT22;9320;50.256;19.026;2023-03-20T05:21:47;10.20;70.20
18388;DHT22;9320;50.256;19.026;2023-03-20T05:24:15;10.20;70.20
18388;DHT22;9320;50.256;19.026;2023-03-20T05:26:43;10.20;70.20
18388;DHT22;9320;50.256;19.026;2023-03-20T05:29:11;10.20;70.20
18388;DHT22;9320;50.256;19.026;2023-03-20T05:31:39;10.30;70.10
18388;DHT22;9320;50.256;19.026;2023-03-20T05:34:08;10.40;70.00
18388;DHT22;9320;50.256;19.026;2023-03-20T05:36:36;10.50;69.70
18388;DHT22;9320;50.256;19.026;2023-03-20T05:39:05;10.70;69.40
18388;DHT22;9320;50.256;19.026;2023-03-20T05:41:33;10.80;69.10
18388;DHT22;9320;50.256;19.026;2023-03-20T05:44:00;10.90;68.80
18388;DHT22;9320;50.256;19.026;2023-03-20T05:46:29;11.00;68.60
18388;DHT22;9320;50.256;19.026;2023-03-20T05:48:57;11.10;68.40
18388;DHT22;9320;50.256;19.026;2023-03-20T05:51:28;11.30;68.20
18388;DHT22;9320;50.256;19.026;2023-03-20T05:53:56;11.30;68.00
18388;DHT22;9320;50.256;19.026;2023-03-20T05:56:24;11.30;68.10
18388;DHT22;9320;50.256;19.026;2023-03-20T05:58:52;11.40;68.10
18388;DHT22;9320;50.256;19.026;2023-03-20T06:01:20;11.40;68.10
18388;DHT22;9320;50.256;19.026;2023-03-20T06:03:48;11.60;68.00
18388;DHT22;9320;50.256;19.026;2023-03-20T06:06:17;11.80;67.70
18388;DHT22;9320;50.256;19.026;2023-03-20T06:08:46;11.80;67.60
18388;DHT22;9320;50.256;19.026;2023-03-20T06:11:14;11.90;67.40
18388;DHT22;9320;50.256;19.026;2023-03-20T06:13:42;11.90;67.90
18388;DHT22;9320;50.256;19.026;2023-03-20T06:16:10;11.90;68.70
18388;DHT22;9320;50.256;19.026;2023-03-20T06:18:38;11.80;69.80
18388;DHT22;9320;50.256;19.026;2023-03-20T06:21:06;11.90;70.00
18388;DHT22;9320;50.256;19.026;2023-03-20T06:23:35;11.80;70.50
18388;DHT22;9320;50.256;19.026;2023-03-20T06:26:04;11.80;71.30
18388;DHT22;9320;50.256;19.026;2023-03-20T06:28:33;11.80;71.60
18388;DHT22;9320;50.256;19.026;2023-03-20T06:31:01;11.90;71.90
18388;DHT22;9320;50.256;19.026;2023-03-20T06:33:31;12.00;72.10
18388;DHT22;9320;50.256;19.026;2023-03-20T06:35:59;12.00;71.90
18388;DHT22;9320;50.256;19.026;2023-03-20T06:38:27;12.20;71.50
18388;DHT22;9320;50.256;19.026;2023-03-20T06:40:55;12.20;71.30
18388;DHT22;9320;50.256;19.026;2023-03-20T06:43:24;12.20;71.20
18388;DHT22;9320;50.256;19.026;2023-03-20T06:45:52;12.20;71.00
18388;DHT22;9320;50.256;19.026;2023-03-20T06:48:21;12.20;71.50
18388;DHT22;9320;50.256;19.026;2023-03-20T06:50:50;12.20;72.30
18388;DHT22;9320;50.256;19.026;2023-03-20T06:53:18;12.40;72.60
18388;DHT22;9320;50.256;19.026;2023-03-20T06:55:47;12.60;71.60
18388;DHT22;9320;50.256;19.026;2023-03-20T06:58:15;12.70;71.30
18388;DHT22;9320;50.256;19.026;2023-03-20T07:00:45;12.80;70.50
18388;DHT22;9320;50.256;19.026;2023-03-20T07:03:13;13.00;70.10
18388;DHT22;9320;50.256;19.026;2023-03-20T07:05:41;13.20;69.70
18388;DHT22;9320;50.256;19.026;2023-03-20T07:08:11;13.10;69.90
18388;DHT22;9320;50.256;19.026;2023-03-20T07:10:39;13.00;70.40
18388;DHT22;9320;50.256;19.026;2023-03-20T07:13:08;13.00;70.50
18388;DHT22;9320;50.256;19.026;2023-03-20T07:15:38;12.90;71.00
18388;DHT22;9320;50.256;19.026;2023-03-20T07:18:24;12.60;72.30
18388;DHT22;9320;50.256;19.026;2023-03-20T07:20:53;12.60;73.50
18388;DHT22;9320;50.256;19.026;2023-03-20T07:23:24;12.50;74.00
18388;DHT22;9320;50.256;19.026;2023-03-20T07:25:53;12.40;74.10
18388;DHT22;9320;50.256;19.026;2023-03-20T07:28:21;12.40;74.80
18388;DHT22;9320;50.256;19.026;2023-03-20T07:30:50;12.30;74.10
18388;DHT22;9320;50.256;19.026;2023-03-20T07:33:18;12.30;74.50
18388;DHT22;9320;50.256;19.026;2023-03-20T07:35:51;12.30;74.70
18388;DHT22;9320;50.256;19.026;2023-03-20T07:38:19;12.30;75.10
18388;DHT22;9320;50.256;19.026;2023-03-20T07:40:48;12.20;76.10
18388;DHT22;9320;50.256;19.026;2023-03-20T07:43:16;12.20;75.50
18388;DHT22;9320;50.256;19.026;2023-03-20T07:45:44;12.20;75.90
18388;DHT22;9320;50.256;19.026;2023-03-20T07:48:13;12.10;76.50
18388;DHT22;9320;50.256;19.026;2023-03-20T07:50:41;12.20;76.70
18388;DHT22;9320;50.256;19.026;2023-03-20T07:53:11;12.20;76.60
18388;DHT22;9320;50.256;19.026;2023-03-20T07:55:39;12.20;76.60
18388;DHT22;9320;50.256;19.026;2023-03-20T07:58:07;12.10;77.20
18388;DHT22;9320;50.256;19.026;2023-03-20T08:00:35;12.20;77.30
18388;DHT22;9320;50.256;19.026;2023-03-20T08:03:03;12.20;77.70
18388;DHT22;9320;50.256;19.026;2023-03-20T08:05:32;12.20;77.80
18388;DHT22;9320;50.256;19.026;2023-03-20T08:08:02;12.20;78.00
18388;DHT22;9320;50.256;19.026;2023-03-20T08:10:32;12.20;78.90
18388;DHT22;9320;50.256;19.026;2023-03-20T08:13:00;12.30;79.80
18388;DHT22;9320;50.256;19.026;2023-03-20T08:15:28;12.40;80.20
18388;DHT22;9320;50.256;19.026;2023-03-20T08:17:56;12.60;80.10
18388;DHT22;9320;50.256;19.026;2023-03-20T08:20:24;12.70;80.50
18388;DHT22;9320;50.256;19.026;2023-03-20T08:22:53;13.00;80.70
18388;DHT22;9320;50.256;19.026;2023-03-20T08:25:21;13.40;79.70
18388;DHT22;9320;50.256;19.026;2023-03-20T08:27:50;13.60;79.00
18388;DHT22;9320;50.256;19.026;2023-03-20T08:30:19;13.80;78.70
18388;DHT22;9320;50.256;19.026;2023-03-20T08:32:47;13.90;78.10
18388;DHT22;9320;50.256;19.026;2023-03-20T08:35:15;13.90;78.20
18388;DHT22;9320;50.256;19.026;2023-03-20T08:38:04;14.00;78.30
18388;DHT22;9320;50.256;19.026;2023-03-20T08:40:32;14.00;78.10
18388;DHT22;9320;50.256;19.026;2023-03-20T08:43:02;14.10;78.50
18388;DHT22;9320;50.256;19.026;2023-03-20T08:45:31;14.20;78.80
18388;DHT22;9320;50.256;19.026;2023-03-20T08:47:59;14.30;78.60
18388;DHT22;9320;50.256;19.026;2023-03-20T08:50:29;14.50;78.20
18388;DHT22;9320;50.256;19.026;2023-03-20T08:52:57;14.50;78.20
18388;DHT22;9320;50.256;19.026;2023-03-20T08:55:25;14.80;77.50
18388;DHT22;9320;50.256;19.026;2023-03-20T08:57:53;14.70;77.70
18388;DHT22;9320;50.256;19.026;2023-03-20T09:00:24;14.80;77.30
18388;DHT22;9320;50.256;19.026;2023-03-20T09:02:53;14.80;77.50
18388;DHT22;9320;50.256;19.026;2023-03-20T09:05:23;15.10;77.30
18388;DHT22;9320;50.256;19.026;2023-03-20T09:07:51;15.40;76.50
18388;DHT22;9320;50.256;19.026;2023-03-20T09:10:20;15.80;74.80
18388;DHT22;9320;50.256;19.026;2023-03-20T09:12:48;15.80;74.40
18388;DHT22;9320;50.256;19.026;2023-03-20T09:15:17;15.50;75.70
18388;DHT22;9320;50.256;19.026;2023-03-20T09:17:47;15.40;76.70
18388;DHT22;9320;50.256;19.026;2023-03-20T09:20:16;15.50;77.50
18388;DHT22;9320;50.256;19.026;2023-03-20T09:22:44;15.60;77.60
18388;DHT22;9320;50.256;19.026;2023-03-20T09:25:13;15.70;77.30
18388;DHT22;9320;50.256;19.026;2023-03-20T09:27:43;16.10;76.90
18388;DHT22;9320;50.256;19.026;2023-03-20T09:30:12;16.40;75.90
18388;DHT22;9320;50.256;19.026;2023-03-20T09:32:42;16.50;75.40
18388;DHT22;9320;50.256;19.026;2023-03-20T09:35:15;16.10;76.70
18388;DHT22;9320;50.256;19.026;2023-03-20T09:37:44;15.90;78.00
18388;DHT22;9320;50.256;19.026;2023-03-20T09:40:22;15.90;78.70
18388;DHT22;9320;50.256;19.026;2023-03-20T09:42:57;15.50;78.90
18388;DHT22;9320;50.256;19.026;2023-03-20T09:45:42;15.40;79.40
18388;DHT22;9320;50.256;19.026;2023-03-20T09:48:16;15.50;80.00
18388;DHT22;9320;50.256;19.026;2023-03-20T09:50:53;15.60;80.10
18388;DHT22;9320;50.256;19.026;2023-03-20T09:53:27;15.90;78.70
18388;DHT22;9320;50.256;19.026;2023-03-20T09:55:56;16.20;77.60
18388;DHT22;9320;50.256;19.026;2023-03-20T09:58:29;16.30;77.40
18388;DHT22;9320;50.256;19.026;2023-03-20T10:01:01;16.10;77.70
18388;DHT22;9320;50.256;19.026;2023-03-20T10:03:38;15.90;79.20
18388;DHT22;9320;50.256;19.026;2023-03-20T10:06:14;15.60;80.10
18388;DHT22;9320;50.256;19.026;2023-03-20T10:08:43;15.30;81.40
18388;DHT22;9320;50.256;19.026;2023-03-20T10:11:34;15.10;82.20
18388;DHT22;9320;50.256;19.026;2023-03-20T10:14:15;15.20;83.00
18388;DHT22;9320;50.256;19.026;2023-03-20T10:17:00;15.30;82.10
18388;DHT22;9320;50.256;19.026;2023-03-20T10:19:33;15.40;82.00
18388;DHT22;9320;50.256;19.026;2023-03-20T10:22:13;15.10;82.70
18388;DHT22;9320;50.256;19.026;2023-03-20T10:24:47;14.90;83.90
18388;DHT22;9320;50.256;19.026;2023-03-20T10:27:21;14.70;85.20
18388;DHT22;9320;50.256;19.026;2023-03-20T10:30:02;14.70;85.40
18388;DHT22;9320;50.256;19.026;2023-03-20T10:32:36;14.60;85.90
18388;DHT22;9320;50.256;19.026;2023-03-20T10:35:20;14.60;85.70
18388;DHT22;9320;50.256;19.026;2023-03-20T10:38:05;14.70;85.70
18388;DHT22;9320;50.256;19.026;2023-03-20T10:40:39;14.80;85.80
18388;DHT22;9320;50.256;19.026;2023-03-20T10:43:13;14.60;86.60
18388;DHT22;9320;50.256;19.026;2023-03-20T10:45:45;14.80;86.30
18388;DHT22;9320;50.256;19.026;2023-03-20T10:48:19;15.20;85.00
18388;DHT22;9320;50.256;19.026;2023-03-20T10:50:50;15.20;84.30
18388;DHT22;9320;50.256;19.026;2023-03-20T10:53:28;15.60;83.70
18388;DHT22;9320;50.256;19.026;2023-03-20T10:55:59;15.90;82.00
18388;DHT22;9320;50.256;19.026;2023-03-20T10:58:31;16.50;80.50
18388;DHT22;9320;50.256;19.026;2023-03-20T11:01:00;16.70;79.40
18388;DHT22;9320;50.256;19.026;2023-03-20T11:03:30;16.90;78.70
18388;DHT22;9320;50.256;19.026;2023-03-20T11:06:02;17.10;78.10
18388;DHT22;9320;50.256;19.026;2023-03-20T11:08:39;17.40;76.40
18388;DHT22;9320;50.256;19.026;2023-03-20T11:11:08;17.30;75.60
18388;DHT22;9320;50.256;19.026;2023-03-20T11:13:39;17.10;76.40
18388;DHT22;9320;50.256;19.026;2023-03-20T11:16:14;16.70;76.70
18388;DHT22;9320;50.256;19.026;2023-03-20T11:18:43;16.60;77.40
18388;DHT22;9320;50.256;19.026;2023-03-20T11:21:18;16.70;77.70
18388;DHT22;9320;50.256;19.026;2023-03-20T11:23:49;16.90;76.60
18388;DHT22;9320;50.256;19.026;2023-03-20T11:26:19;17.00;76.70
18388;DHT22;9320;50.256;19.026;2023-03-20T11:28:55;16.90;76.40
18388;DHT22;9320;50.256;19.026;2023-03-20T11:31:30;16.80;76.70
18388;DHT22;9320;50.256;19.026;2023-03-20T11:34:10;16.90;75.80
18388;DHT22;9320;50.256;19.026;2023-03-20T11:36:38;16.80;75.90
18388;DHT22;9320;50.256;19.026;2023-03-20T11:39:12;17.00;76.20
18388;DHT22;9320;50.256;19.026;2023-03-20T11:41:45;17.50;74.90
18388;DHT22;9320;50.256;19.026;2023-03-20T11:44:22;17.80;73.00
18388;DHT22;9320;50.256;19.026;2023-03-20T11:46:58;17.70;72.10
18388;DHT22;9320;50.256;19.026;2023-03-20T11:49:27;17.80;72.50
18388;DHT22;9320;50.256;19.026;2023-03-20T11:51:59;18.00;72.10
18388;DHT22;9320;50.256;19.026;2023-03-20T11:54:29;18.10;71.40
18388;DHT22;9320;50.256;19.026;2023-03-20T11:56:58;18.10;70.80
18388;DHT22;9320;50.256;19.026;2023-03-20T11:59:29;17.90;71.40
18388;DHT22;9320;50.256;19.026;2023-03-20T12:02:02;17.70;71.10
18388;DHT22;9320;50.256;19.026;2023-03-20T12:04:31;17.70;71.50
18388;DHT22;9320;50.256;19.026;2023-03-20T12:07:03;17.60;71.60
18388;DHT22;9320;50.256;19.026;2023-03-20T12:09:41;17.70;71.60
18388;DHT22;9320;50.256;19.026;2023-03-20T12:12:22;17.40;72.00
18388;DHT22;9320;50.256;19.026;2023-03-20T12:14:55;17.30;72.40
18388;DHT22;9320;50.256;19.026;2023-03-20T12:17:33;17.20;72.70
18388;DHT22;9320;50.256;19.026;2023-03-20T12:20:06;16.90;73.60
18388;DHT22;9320;50.256;19.026;2023-03-20T12:22:42;16.60;74.40
18388;DHT22;9320;50.256;19.026;2023-03-20T12:25:20;16.40;75.20
18388;DHT22;9320;50.256;19.026;2023-03-20T12:27:54;16.30;75.70
18388;DHT22;9320;50.256;19.026;2023-03-20T12:30:30;16.20;76.10
18388;DHT22;9320;50.256;19.026;2023-03-20T12:33:03;16.20;76.10
18388;DHT22;9320;50.256;19.026;2023-03-20T12:35:36;16.10;76.60
18388;DHT22;9320;50.256;19.026;2023-03-20T12:38:17;16.00;77.00
18388;DHT22;9320;50.256;19.026;2023-03-20T12:40:50;15.70;77.90
18388;DHT22;9320;50.256;19.026;2023-03-20T12:43:24;15.40;79.00
18388;DHT22;9320;50.256;19.026;2023-03-20T12:45:56;15.40;79.40
18388;DHT22;9320;50.256;19.026;2023-03-20T12:48:40;15.40;80.10
18388;DHT22;9320;50.256;19.026;2023-03-20T12:51:16;15.40;81.10
18388;DHT22;9320;50.256;19.026;2023-03-20T12:53:54;15.30;80.50
18388;DHT22;9320;50.256;19.026;2023-03-20T12:56:45;15.40;80.60
18388;DHT22;9320;50.256;19.026;2023-03-20T12:59:20;15.40;80.40
18388;DHT22;9320;50.256;19.026;2023-03-20T13:01:54;15.60;80.00
18388;DHT22;9320;50.256;19.026;2023-03-20T13:07:17;15.80;79.50
18388;DHT22;9320;50.256;19.026;2023-03-20T13:09:57;15.80;79.10
18388;DHT22;9320;50.256;19.026;2023-03-20T13:12:39;15.70;79.10
18388;DHT22;9320;50.256;19.026;2023-03-20T13:15:18;15.80;79.10
18388;DHT22;9320;50.256;19.026;2023-03-20T13:17:51;15.90;78.50
18388;DHT22;9320;50.256;19.026;2023-03-20T13:20:27;15.90;78.50
18388;DHT22;9320;50.256;19.026;2023-03-20T13:23:16;15.80;79.20
18388;DHT22;9320;50.256;19.026;2023-03-20T13:26:07;15.70;79.20
18388;DHT22;9320;50.256;19.026;2023-03-20T13:28:48;15.60;79.70
18388;DHT22;9320;50.256;19.026;2023-03-20T13:31:29;15.70;79.60
18388;DHT22;9320;50.256;19.026;2023-03-20T13:34:08;15.60;80.50
18388;DHT22;9320;50.256;19.026;2023-03-20T13:36:49;15.50;81.90
18388;DHT22;9320;50.256;19.026;2023-03-20T13:39:23;15.40;81.70
18388;DHT22;9320;50.256;19.026;2023-03-20T13:41:54;15.20;82.10
18388;DHT22;9320;50.256;19.026;2023-03-20T13:44:26;15.00;82.40
18388;DHT22;9320;50.256;19.026;2023-03-20T13:46:57;15.00;82.90
18388;DHT22;9320;50.256;19.026;2023-03-20T13:49:33;15.00;83.20
18388;DHT22;9320;50.256;19.026;2023-03-20T13:52:07;15.10;83.20
18388;DHT22;9320;50.256;19.026;2023-03-20T13:54:50;15.20;82.90
18388;DHT22;9320;50.256;19.026;2023-03-20T13:57:34;15.10;83.30
18388;DHT22;9320;50.256;19.026;2023-03-20T14:00:17;15.20;83.20
18388;DHT22;9320;50.256;19.026;2023-03-20T14:03:17;15.20;82.80
18388;DHT22;9320;50.256;19.026;2023-03-20T14:05:47;15.30;82.70
18388;DHT22;9320;50.256;19.026;2023-03-20T14:08:28;15.30;82.80
18388;DHT22;9320;50.256;19.026;2023-03-20T14:11:14;15.20;82.80
18388;DHT22;9320;50.256;19.026;2023-03-20T14:13:44;15.20;82.90
18388;DHT22;9320;50.256;19.026;2023-03-20T14:16:17;15.20;83.40
18388;DHT22;9320;50.256;19.026;2023-03-20T14:18:47;15.00;84.30
18388;DHT22;9320;50.256;19.026;2023-03-20T14:21:18;15.00;84.60
18388;DHT22;9320;50.256;19.026;2023-03-20T14:23:49;15.00;84.70
18388;DHT22;9320;50.256;19.026;2023-03-20T14:26:20;15.00;84.80
18388;DHT22;9320;50.256;19.026;2023-03-20T14:28:55;15.00;84.90
18388;DHT22;9320;50.256;19.026;2023-03-20T14:31:28;14.80;85.10
18388;DHT22;9320;50.256;19.026;2023-03-20T14:34:06;14.80;85.50
18388;DHT22;9320;50.256;19.026;2023-03-20T14:36:50;14.90;85.20
18388;DHT22;9320;50.256;19.026;2023-03-20T14:39:26;14.80;85.50
18388;DHT22;9320;50.256;19.026;2023-03-20T14:42:04;14.70;86.00
18388;DHT22;9320;50.256;19.026;2023-03-20T14:44:52;14.60;86.40
18388;DHT22;9320;50.256;19.026;2023-03-20T14:47:35;14.60;86.60
18388;DHT22;9320;50.256;19.026;2023-03-20T14:50:16;14.50;87.00
18388;DHT22;9320;50.256;19.026;2023-03-20T14:52:57;14.40;89.60
18388;DHT22;9320;50.256;19.026;2023-03-20T14:55:33;14.10;91.30
18388;DHT22;9320;50.256;19.026;2023-03-20T14:58:03;14.10;92.20
18388;DHT22;9320;50.256;19.026;2023-03-20T15:00:34;14.00;93.20
18388;DHT22;9320;50.256;19.026;2023-03-20T15:03:14;13.90;96.60
18388;DHT22;9320;50.256;19.026;2023-03-20T15:05:44;13.90;99.90
18388;DHT22;9320;50.256;19.026;2023-03-20T15:08:19;13.80;99.90
18388;DHT22;9320;50.256;19.026;2023-03-20T15:10:51;13.90;99.90
18388;DHT22;9320;50.256;19.026;2023-03-20T15:13:19;13.90;99.90
18388;DHT22;9320;50.256;19.026;2023-03-20T15:15:52;14.00;99.90
18388;DHT22;9320;50.256;19.026;2023-03-20T15:18:24;14.10;99.90
18388;DHT22;9320;50.256;19.026;2023-03-20T15:20:54;14.10;99.90
18388;DHT22;9320;50.256;19.026;2023-03-20T15:23:23;14.20;99.90
18388;DHT22;9320;50.256;19.026;2023-03-20T15:25:52;14.20;99.90
18388;DHT22;9320;50.256;19.026;2023-03-20T15:28:22;14.20;99.90
18388;DHT22;9320;50.256;19.026;2023-03-20T15:30:52;14.20;99.90
18388;DHT22;9320;50.256;19.026;2023-03-20T15:33:26;14.10;99.90
18388;DHT22;9320;50.256;19.026;2023-03-20T15:35:55;14.00;99.90
18388;DHT22;9320;50.256;19.026;2023-03-20T15:38:27;14.00;99.90
18388;DHT22;9320;50.256;19.026;2023-03-20T15:40:56;14.00;99.90
18388;DHT22;9320;50.256;19.026;2023-03-20T15:43:25;14.00;99.90
18388;DHT22;9320;50.256;19.026;2023-03-20T15:45:53;14.00;99.90
18388;DHT22;9320;50.256;19.026;2023-03-20T15:48:47;14.00;99.90
18388;DHT22;9320;50.256;19.026;2023-03-20T15:51:16;14.00;99.90
18388;DHT22;9320;50.256;19.026;2023-03-20T15:53:46;13.90;99.90
18388;DHT22;9320;50.256;19.026;2023-03-20T15:56:16;13.80;99.90
18388;DHT22;9320;50.256;19.026;2023-03-20T15:58:47;13.80;99.90
18388;DHT22;9320;50.256;19.026;2023-03-20T16:01:19;13.80;99.90
18388;DHT22;9320;50.256;19.026;2023-03-20T16:03:50;13.90;99.90
18388;DHT22;9320;50.256;19.026;2023-03-20T16:06:20;13.80;99.90
18388;DHT22;9320;50.256;19.026;2023-03-20T16:08:57;13.90;99.90
18388;DHT22;9320;50.256;19.026;2023-03-20T16:11:35;13.90;99.90